createdAt,value
2017-10-04T00:00:46.657Z,10.75
2017-10-04T00:01:44.487Z,10.82
2017-10-04T00:02:44.865Z,10.79
2017-10-04T00:03:44.466Z,10.79
2017-10-04T00:04:44.461Z,10.75
2017-10-04T00:05:44.460Z,10.76
2017-10-04T00:06:44.451Z,10.74
2017-10-04T00:07:44.449Z,10.78
2017-10-04T00:08:44.441Z,10.76
2017-10-04T00:09:44.751Z,10.72
2017-10-04T00:10:44.444Z,10.64
2017-10-04T00:11:44.442Z,10.69
2017-10-04T00:12:44.767Z,10.75
2017-10-04T00:13:44.427Z,10.74
2017-10-04T00:14:44.425Z,10.67
2017-10-04T00:15:44.116Z,10.64
2017-10-04T00:16:44.413Z,10.69
2017-10-04T00:17:44.116Z,10.71
2017-10-04T00:18:44.729Z,10.71
2017-10-04T00:19:44.711Z,10.74
2017-10-04T00:20:44.701Z,10.68
2017-10-04T00:21:44.705Z,10.59
2017-10-04T00:22:44.697Z,10.6
2017-10-04T00:23:44.388Z,10.56
2017-10-04T00:24:44.694Z,10.54
2017-10-04T00:25:44.070Z,10.56
2017-10-04T00:26:44.066Z,10.48
2017-10-04T00:27:44.677Z,10.44
2017-10-04T00:28:44.362Z,10.44
2017-10-04T00:29:44.668Z,10.37
2017-10-04T00:30:44.366Z,10.31
2017-10-04T00:31:44.041Z,10.34
2017-10-04T00:32:44.653Z,10.41
2017-10-04T00:33:44.346Z,10.38
2017-10-04T00:34:44.651Z,10.46
2017-10-04T00:35:44.662Z,10.54
2017-10-04T00:36:44.330Z,10.6
2017-10-04T00:37:44.371Z,10.69
2017-10-04T00:38:44.071Z,10.72
2017-10-04T00:39:44.630Z,10.74
2017-10-04T00:40:44.658Z,10.78
2017-10-04T00:41:44.304Z,10.82
2017-10-04T00:42:44.341Z,10.76
2017-10-04T00:43:44.612Z,10.81
2017-10-04T00:44:44.615Z,10.82
2017-10-04T00:45:44.288Z,10.9
2017-10-04T00:46:43.974Z,10.96
2017-10-04T00:47:43.983Z,10.87
2017-10-04T00:48:44.605Z,10.79
2017-10-04T00:49:44.582Z,10.89
2017-10-04T00:50:44.601Z,11.05
2017-10-04T00:51:44.265Z,11.04
2017-10-04T00:52:44.261Z,11.1
2017-10-04T00:53:44.574Z,10.94
2017-10-04T00:54:44.560Z,10.99
2017-10-04T00:55:44.558Z,10.93
2017-10-04T00:56:44.242Z,10.87
2017-10-04T00:57:44.241Z,10.92
2017-10-04T00:58:44.555Z,10.9
2017-10-04T00:59:44.552Z,10.87
2017-10-04T01:00:43.921Z,10.92
2017-10-04T01:01:44.237Z,10.94
2017-10-04T01:02:44.532Z,10.97
2017-10-04T01:03:44.230Z,10.94
2017-10-04T01:04:44.222Z,11.04
2017-10-04T01:05:44.225Z,10.96
2017-10-04T01:06:44.514Z,10.81
2017-10-04T01:07:44.529Z,10.75
2017-10-04T01:08:44.510Z,10.74
2017-10-04T01:09:43.890Z,10.78
2017-10-04T01:10:44.501Z,10.67
2017-10-04T01:11:44.205Z,10.78
2017-10-04T01:12:44.572Z,10.76
2017-10-04T01:13:44.196Z,10.86
2017-10-04T01:14:43.868Z,10.9
2017-10-04T01:15:44.186Z,10.78
2017-10-04T01:16:44.478Z,10.86
2017-10-04T01:17:44.493Z,10.82
2017-10-04T01:18:44.165Z,10.82
2017-10-04T01:19:44.472Z,10.79
2017-10-04T01:20:44.459Z,10.74
2017-10-04T01:21:44.458Z,10.78
2017-10-04T01:22:44.149Z,10.72
2017-10-04T01:23:44.146Z,10.76
2017-10-04T01:24:43.849Z,10.72
2017-10-04T01:25:44.134Z,10.68
2017-10-04T01:26:44.134Z,10.75
2017-10-04T01:27:44.443Z,10.74
2017-10-04T01:28:43.826Z,10.76
2017-10-04T01:29:44.120Z,10.82
2017-10-04T01:30:43.805Z,10.78
2017-10-04T01:31:44.110Z,10.61
2017-10-04T01:32:44.413Z,10.6
2017-10-04T01:33:43.792Z,10.61
2017-10-04T01:34:44.100Z,10.59
2017-10-04T01:35:44.099Z,10.53
2017-10-04T01:36:44.406Z,10.42
2017-10-04T01:37:44.094Z,10.4
2017-10-04T01:38:44.392Z,10.26
2017-10-04T01:39:44.385Z,10.19
2017-10-04T01:40:44.393Z,10.12
2017-10-04T01:41:43.766Z,10.09
2017-10-04T01:42:43.758Z,10.07
2017-10-04T01:43:44.063Z,10.09
2017-10-04T01:44:44.061Z,10.15
2017-10-04T01:45:44.376Z,10.2
2017-10-04T01:46:44.412Z,10.13
2017-10-04T01:47:44.416Z,10.09
2017-10-04T01:48:44.356Z,10.12
2017-10-04T01:49:44.049Z,10.15
2017-10-04T01:50:44.028Z,10.22
2017-10-04T01:51:44.026Z,10.17
2017-10-04T01:52:44.337Z,10.15
2017-10-04T01:53:44.025Z,10.19
2017-10-04T01:54:44.016Z,10.2
2017-10-04T01:55:44.010Z,10.28
2017-10-04T01:56:44.323Z,10.26
2017-10-04T01:57:43.691Z,10.4
2017-10-04T01:58:43.689Z,10.41
2017-10-04T01:59:44.300Z,10.35
2017-10-04T02:00:44.365Z,10.38
2017-10-04T02:01:44.001Z,10.33
2017-10-04T02:02:44.289Z,10.34
2017-10-04T02:03:43.977Z,10.4
2017-10-04T02:04:43.973Z,10.48
2017-10-04T02:05:43.968Z,10.42
2017-10-04T02:06:43.966Z,10.51
2017-10-04T02:07:43.962Z,10.46
2017-10-04T02:08:43.960Z,10.6
2017-10-04T02:09:43.951Z,10.6
2017-10-04T02:10:43.950Z,10.67
2017-10-04T02:11:44.257Z,10.68
2017-10-04T02:12:43.947Z,10.69
2017-10-04T02:13:44.247Z,10.72
2017-10-04T02:14:44.247Z,10.75
2017-10-04T02:15:44.242Z,10.74
2017-10-04T02:16:44.242Z,10.72
2017-10-04T02:17:43.924Z,10.61
2017-10-04T02:18:44.236Z,10.71
2017-10-04T02:19:43.923Z,10.81
2017-10-04T02:20:43.962Z,10.81
2017-10-04T02:21:43.911Z,10.79
2017-10-04T02:22:43.903Z,10.71
2017-10-04T02:23:43.593Z,10.74
2017-10-04T02:24:43.925Z,10.61
2017-10-04T02:25:44.212Z,10.42
2017-10-04T02:26:43.898Z,10.41
2017-10-04T02:27:44.239Z,10.31
2017-10-04T02:28:44.192Z,10.23
2017-10-04T02:29:44.182Z,10.25
2017-10-04T02:30:44.192Z,10.16
2017-10-04T02:31:44.177Z,10.15
2017-10-04T02:32:44.170Z,10.26
2017-10-04T02:33:43.878Z,10.25
2017-10-04T02:34:43.861Z,10.31
2017-10-04T02:35:44.163Z,10.26
2017-10-04T02:36:44.160Z,10.34
2017-10-04T02:37:44.157Z,10.31
2017-10-04T02:38:44.094Z,10.3
2017-10-04T02:39:44.143Z,10.33
2017-10-04T02:40:44.142Z,10.25
2017-10-04T02:41:43.825Z,10.17
2017-10-04T02:42:43.824Z,10.15
2017-10-04T02:43:44.129Z,10.15
2017-10-04T02:44:44.130Z,10.17
2017-10-04T02:45:44.201Z,10.1
2017-10-04T02:46:44.127Z,10.17
2017-10-04T02:47:43.809Z,10.02
2017-10-04T02:48:44.107Z,9.95
2017-10-04T02:49:43.487Z,9.98
2017-10-04T02:50:43.479Z,9.92
2017-10-04T02:51:44.095Z,9.86
2017-10-04T02:52:44.091Z,9.87
2017-10-04T02:53:43.782Z,9.91
2017-10-04T02:54:43.789Z,9.86
2017-10-04T02:55:44.080Z,9.84
2017-10-04T02:56:44.078Z,9.92
2017-10-04T02:57:43.759Z,9.94
2017-10-04T02:58:43.758Z,9.98
2017-10-04T02:59:44.060Z,10.02
2017-10-04T03:00:44.058Z,10.05
2017-10-04T03:01:44.058Z,10.05
2017-10-04T03:02:44.049Z,10.07
2017-10-04T03:03:44.046Z,10.17
2017-10-04T03:04:44.052Z,10.17
2017-10-04T03:05:43.729Z,10.13
2017-10-04T03:06:44.030Z,10.17
2017-10-04T03:07:44.029Z,10.13
2017-10-04T03:08:43.729Z,10.04
2017-10-04T03:09:43.402Z,10.05
2017-10-04T03:10:44.015Z,10.07
2017-10-04T03:11:44.012Z,10.01
2017-10-04T03:12:43.396Z,9.99
2017-10-04T03:13:44.005Z,9.94
2017-10-04T03:14:43.995Z,9.92
2017-10-04T03:15:44.005Z,9.91
2017-10-04T03:16:43.680Z,9.89
2017-10-04T03:17:43.993Z,9.87
2017-10-04T03:18:43.990Z,9.89
2017-10-04T03:19:43.676Z,9.86
2017-10-04T03:20:43.776Z,9.89
2017-10-04T03:21:43.667Z,9.86
2017-10-04T03:22:43.989Z,9.8
2017-10-04T03:23:43.658Z,9.87
2017-10-04T03:24:43.959Z,9.76
2017-10-04T03:25:43.645Z,9.68
2017-10-04T03:26:43.364Z,9.8
2017-10-04T03:27:43.947Z,9.76
2017-10-04T03:28:43.944Z,9.82
2017-10-04T03:29:43.945Z,9.84
2017-10-04T03:30:43.628Z,9.89
2017-10-04T03:31:43.930Z,9.8
2017-10-04T03:32:43.927Z,9.8
2017-10-04T03:33:43.609Z,9.83
2017-10-04T03:34:43.920Z,9.84
2017-10-04T03:35:43.920Z,9.92
2017-10-04T03:36:43.596Z,9.92
2017-10-04T03:37:43.907Z,9.95
2017-10-04T03:38:43.905Z,9.92
2017-10-04T03:39:43.907Z,10.05
2017-10-04T03:40:43.925Z,10.07
2017-10-04T03:41:43.888Z,10.01
2017-10-04T03:42:43.264Z,9.94
2017-10-04T03:43:43.876Z,10.05
2017-10-04T03:44:43.261Z,9.99
2017-10-04T03:45:43.601Z,10.02
2017-10-04T03:46:43.872Z,9.95
2017-10-04T03:47:43.244Z,9.92
2017-10-04T03:48:43.249Z,9.95
2017-10-04T03:49:43.852Z,9.89
2017-10-04T03:50:43.550Z,9.94
2017-10-04T03:51:43.842Z,9.89
2017-10-04T03:52:43.849Z,9.87
2017-10-04T03:53:43.536Z,9.91
2017-10-04T03:54:43.831Z,9.83
2017-10-04T03:55:43.520Z,9.74
2017-10-04T03:56:43.829Z,9.72
2017-10-04T03:57:43.824Z,9.72
2017-10-04T03:58:43.199Z,9.65
2017-10-04T03:59:43.818Z,9.68
2017-10-04T04:00:43.512Z,9.66
2017-10-04T04:01:43.511Z,9.55
2017-10-04T04:02:43.489Z,9.62
2017-10-04T04:03:43.490Z,9.59
2017-10-04T04:04:43.787Z,9.55
2017-10-04T04:05:43.173Z,9.65
2017-10-04T04:06:43.784Z,9.62
2017-10-04T04:07:43.477Z,9.65
2017-10-04T04:08:43.775Z,9.64
2017-10-04T04:09:43.769Z,9.55
2017-10-04T04:10:43.771Z,9.62
2017-10-04T04:11:43.452Z,9.62
2017-10-04T04:12:43.767Z,9.55
2017-10-04T04:13:43.142Z,9.55
2017-10-04T04:14:43.743Z,9.54
2017-10-04T04:15:43.814Z,9.44
2017-10-04T04:16:43.735Z,9.48
2017-10-04T04:17:43.731Z,9.46
2017-10-04T04:18:43.731Z,9.51
2017-10-04T04:19:43.729Z,9.55
2017-10-04T04:20:43.714Z,9.64
2017-10-04T04:21:43.409Z,9.5
2017-10-04T04:22:43.403Z,9.61
2017-10-04T04:23:43.706Z,9.62
2017-10-04T04:24:43.705Z,9.54
2017-10-04T04:25:43.696Z,9.55
2017-10-04T04:26:43.383Z,9.46
2017-10-04T04:27:43.706Z,9.43
2017-10-04T04:28:43.685Z,9.4
2017-10-04T04:29:43.718Z,9.37
2017-10-04T04:30:43.365Z,9.29
2017-10-04T04:31:43.357Z,9.37
2017-10-04T04:32:43.352Z,9.28
2017-10-04T04:33:43.354Z,9.34
2017-10-04T04:34:43.652Z,9.32
2017-10-04T04:35:43.341Z,9.39
2017-10-04T04:36:43.653Z,9.29
2017-10-04T04:37:43.638Z,9.34
2017-10-04T04:38:43.332Z,9.29
2017-10-04T04:39:43.318Z,9.37
2017-10-04T04:40:43.012Z,9.4
2017-10-04T04:41:43.316Z,9.36
2017-10-04T04:42:43.612Z,9.32
2017-10-04T04:43:43.299Z,9.29
2017-10-04T04:44:43.605Z,9.22
2017-10-04T04:45:43.629Z,9.16
2017-10-04T04:46:43.596Z,9.1
2017-10-04T04:47:43.280Z,9.03
2017-10-04T04:48:43.273Z,9.06
2017-10-04T04:49:42.963Z,9.08
2017-10-04T04:50:42.957Z,8.97
2017-10-04T04:51:43.566Z,8.95
2017-10-04T04:52:43.567Z,9
2017-10-04T04:53:43.557Z,8.89
2017-10-04T04:54:43.557Z,8.95
2017-10-04T04:55:43.551Z,8.88
2017-10-04T04:56:43.230Z,8.84
2017-10-04T04:57:43.226Z,8.89
2017-10-04T04:58:43.222Z,8.91
2017-10-04T04:59:43.523Z,8.82
2017-10-04T05:00:43.518Z,8.92
2017-10-04T05:01:43.202Z,8.89
2017-10-04T05:02:43.205Z,8.95
2017-10-04T05:03:43.508Z,9.06
2017-10-04T05:04:43.499Z,8.91
2017-10-04T05:05:43.182Z,8.91
2017-10-04T05:06:43.178Z,8.85
2017-10-04T05:07:43.476Z,8.78
2017-10-04T05:08:42.858Z,8.71
2017-10-04T05:09:43.162Z,8.71
2017-10-04T05:10:43.157Z,8.87
2017-10-04T05:11:43.461Z,8.89
2017-10-04T05:12:43.147Z,8.99
2017-10-04T05:13:43.454Z,8.97
2017-10-04T05:14:43.135Z,8.99
2017-10-04T05:15:43.430Z,8.99
2017-10-04T05:16:43.436Z,8.97
2017-10-04T05:17:43.427Z,8.99
2017-10-04T05:18:43.110Z,8.94
2017-10-04T05:19:42.792Z,8.95
2017-10-04T05:20:43.492Z,8.97
2017-10-04T05:21:43.092Z,9.04
2017-10-04T05:22:43.086Z,9.1
2017-10-04T05:23:43.396Z,9.13
2017-10-04T05:24:43.394Z,9.16
2017-10-04T05:25:43.072Z,9.19
2017-10-04T05:26:43.377Z,9.19
2017-10-04T05:27:43.072Z,9.11
2017-10-04T05:28:43.054Z,9.14
2017-10-04T05:29:43.069Z,9
2017-10-04T05:30:43.111Z,9.06
2017-10-04T05:31:43.041Z,9.14
2017-10-04T05:32:43.042Z,9.19
2017-10-04T05:33:43.045Z,9.37
2017-10-04T05:34:43.332Z,9.34
2017-10-04T05:35:42.706Z,9.32
2017-10-04T05:36:42.707Z,9.32
2017-10-04T05:37:43.005Z,9.29
2017-10-04T05:38:42.703Z,9.25
2017-10-04T05:39:42.703Z,9.14
2017-10-04T05:40:43.088Z,9.26
2017-10-04T05:41:42.681Z,9.14
2017-10-04T05:42:43.289Z,9.16
2017-10-04T05:43:42.983Z,9.06
2017-10-04T05:44:42.967Z,9.1
2017-10-04T05:45:43.302Z,9.1
2017-10-04T05:46:43.262Z,9.08
2017-10-04T05:47:43.252Z,9.13
2017-10-04T05:48:42.637Z,9.23
2017-10-04T05:49:42.944Z,9.29
2017-10-04T05:50:42.939Z,9.44
2017-10-04T05:51:42.937Z,9.48
2017-10-04T05:52:43.229Z,9.5
2017-10-04T05:53:42.916Z,9.58
2017-10-04T05:54:42.907Z,9.59
2017-10-04T05:55:43.212Z,9.55
2017-10-04T05:56:43.210Z,9.58
2017-10-04T05:57:42.896Z,9.56
2017-10-04T05:58:42.888Z,9.56
2017-10-04T05:59:43.196Z,9.54
2017-10-04T06:00:42.881Z,9.46
2017-10-04T06:01:43.205Z,9.43
2017-10-04T06:02:43.176Z,9.43
2017-10-04T06:03:43.168Z,9.4
2017-10-04T06:04:43.173Z,9.43
2017-10-04T06:05:43.172Z,9.37
2017-10-04T06:06:42.548Z,9.29
2017-10-04T06:07:43.146Z,9.29
2017-10-04T06:08:42.837Z,9.39
2017-10-04T06:09:42.525Z,9.43
2017-10-04T06:10:43.197Z,9.55
2017-10-04T06:11:42.817Z,9.61
2017-10-04T06:12:43.146Z,9.73
2017-10-04T06:13:42.809Z,9.74
2017-10-04T06:14:43.123Z,9.89
2017-10-04T06:15:42.841Z,9.84
2017-10-04T06:16:42.793Z,9.79
2017-10-04T06:17:42.476Z,9.72
2017-10-04T06:18:43.093Z,9.55
2017-10-04T06:19:43.085Z,9.61
2017-10-04T06:20:42.784Z,9.72
2017-10-04T06:21:42.777Z,9.77
2017-10-04T06:22:43.072Z,9.86
2017-10-04T06:23:42.761Z,9.92
2017-10-04T06:24:42.442Z,9.98
2017-10-04T06:25:42.748Z,10.12
2017-10-04T06:26:42.743Z,10.1
2017-10-04T06:27:42.736Z,10.2
2017-10-04T06:28:43.044Z,10.17
2017-10-04T06:29:43.037Z,10.09
2017-10-04T06:30:42.740Z,10.16
2017-10-04T06:31:43.032Z,10.1
2017-10-04T06:32:43.035Z,10.22
2017-10-04T06:33:43.020Z,10.25
2017-10-04T06:34:43.017Z,10.35
2017-10-04T06:35:42.747Z,10.35
2017-10-04T06:36:42.395Z,10.35
2017-10-04T06:37:42.695Z,10.34
2017-10-04T06:38:43.008Z,10.26
2017-10-04T06:39:42.995Z,10.25
2017-10-04T06:40:42.713Z,10.19
2017-10-04T06:41:42.990Z,10.19
2017-10-04T06:42:42.684Z,10.16
2017-10-04T06:43:42.985Z,10.15
2017-10-04T06:44:42.992Z,10.13
2017-10-04T06:45:43.052Z,10.16
2017-10-04T06:46:42.967Z,10.07
2017-10-04T06:47:42.965Z,10.13
2017-10-04T06:48:42.964Z,10.09
2017-10-04T06:49:42.966Z,10.04
2017-10-04T06:50:42.655Z,10.02
2017-10-04T06:51:42.944Z,10.01
2017-10-04T06:52:42.664Z,9.92
2017-10-04T06:53:42.940Z,9.92
2017-10-04T06:54:42.633Z,9.92
2017-10-04T06:55:42.623Z,9.83
2017-10-04T06:56:42.940Z,9.79
2017-10-04T06:57:42.625Z,9.79
2017-10-04T06:58:42.921Z,9.72
2017-10-04T06:59:42.607Z,9.68
2017-10-04T07:00:42.602Z,9.66
2017-10-04T07:01:42.601Z,9.65
2017-10-04T07:02:42.914Z,9.56
2017-10-04T07:03:42.588Z,9.65
2017-10-04T07:04:42.587Z,9.66
2017-10-04T07:05:42.913Z,9.66
2017-10-04T07:06:42.892Z,9.64
2017-10-04T07:07:42.874Z,9.65
2017-10-04T07:08:42.869Z,9.68
2017-10-04T07:09:42.867Z,9.72
2017-10-04T07:10:42.638Z,9.74
2017-10-04T07:11:42.554Z,9.86
2017-10-04T07:12:42.846Z,9.92
2017-10-04T07:13:42.536Z,9.98
2017-10-04T07:14:42.843Z,9.92
2017-10-04T07:15:42.298Z,10.02
2017-10-04T07:16:42.838Z,10.05
2017-10-04T07:17:42.526Z,10.02
2017-10-04T07:18:42.210Z,10.22
2017-10-04T07:19:42.811Z,10.31
2017-10-04T07:20:42.517Z,10.38
2017-10-04T07:21:42.198Z,10.46
2017-10-04T07:22:42.492Z,10.38
2017-10-04T07:23:42.799Z,10.37
2017-10-04T07:24:42.497Z,10.33
2017-10-04T07:25:42.543Z,10.28
2017-10-04T07:26:42.483Z,10.26
2017-10-04T07:27:42.798Z,10.2
2017-10-04T07:28:42.774Z,10.16
2017-10-04T07:29:42.473Z,10.22
2017-10-04T07:30:42.150Z,10.22
2017-10-04T07:31:42.453Z,10.38
2017-10-04T07:32:42.462Z,10.57
2017-10-04T07:33:42.450Z,10.64
2017-10-04T07:34:42.763Z,10.76
2017-10-04T07:35:42.512Z,10.76
2017-10-04T07:36:42.432Z,10.86
2017-10-04T07:37:42.743Z,11.08
2017-10-04T07:38:42.424Z,11.08
2017-10-04T07:39:42.737Z,10.92
2017-10-04T07:40:42.441Z,11.11
2017-10-04T07:41:42.418Z,11.14
2017-10-04T07:42:42.719Z,11.12
2017-10-04T07:43:42.417Z,11.15
2017-10-04T07:44:42.717Z,11.18
2017-10-04T07:45:42.437Z,11.29
2017-10-04T07:46:42.710Z,11.25
2017-10-04T07:47:42.706Z,11.23
2017-10-04T07:48:42.706Z,11.15
2017-10-04T07:49:42.084Z,11.22
2017-10-04T07:50:42.387Z,11.3
2017-10-04T07:51:42.703Z,11.25
2017-10-04T07:52:42.689Z,11.17
2017-10-04T07:53:42.374Z,11.19
2017-10-04T07:54:42.725Z,11.3
2017-10-04T07:55:42.461Z,11.26
2017-10-04T07:56:42.365Z,11.27
2017-10-04T07:57:42.372Z,11.35
2017-10-04T07:58:42.361Z,11.47
2017-10-04T07:59:42.366Z,11.48
2017-10-04T08:00:42.090Z,11.45
2017-10-04T08:01:42.370Z,11.55
2017-10-04T08:02:43.159Z,11.54
2017-10-04T08:03:42.347Z,11.69
2017-10-04T08:04:42.655Z,11.69
2017-10-04T08:05:42.651Z,11.77
2017-10-04T08:06:42.656Z,11.86
2017-10-04T08:07:42.342Z,11.91
2017-10-04T08:08:42.337Z,11.99
2017-10-04T08:09:42.658Z,12.04
2017-10-04T08:10:42.645Z,12.04
2017-10-04T08:11:42.636Z,12.04
2017-10-04T08:12:42.346Z,12.15
2017-10-04T08:13:42.324Z,12.25
2017-10-04T08:14:42.323Z,12.21
2017-10-04T08:15:42.324Z,12.2
2017-10-04T08:16:42.010Z,12.21
2017-10-04T08:17:42.637Z,12.15
2017-10-04T08:18:42.324Z,12.18
2017-10-04T08:19:42.006Z,12.18
2017-10-04T08:20:42.322Z,12.29
2017-10-04T08:21:42.311Z,12.22
2017-10-04T08:22:42.620Z,12.32
2017-10-04T08:23:42.310Z,12.32
2017-10-04T08:24:42.612Z,12.29
2017-10-04T08:25:42.331Z,12.5
2017-10-04T08:26:42.305Z,12.5
2017-10-04T08:27:42.621Z,12.55
2017-10-04T08:28:42.608Z,12.64
2017-10-04T08:29:42.604Z,12.78
2017-10-04T08:30:42.388Z,12.82
2017-10-04T08:31:41.985Z,12.83
2017-10-04T08:32:42.611Z,13.01
2017-10-04T08:33:42.298Z,13.12
2017-10-04T08:34:42.602Z,13.16
2017-10-04T08:35:42.598Z,13.38
2017-10-04T08:36:42.292Z,13.42
2017-10-04T08:37:42.628Z,13.41
2017-10-04T08:38:42.591Z,13.5
2017-10-04T08:39:42.602Z,13.5
2017-10-04T08:40:42.591Z,13.42
2017-10-04T08:41:42.591Z,13.52
2017-10-04T08:42:41.979Z,13.56
2017-10-04T08:43:42.585Z,13.63
2017-10-04T08:44:42.279Z,13.7
2017-10-04T08:45:42.277Z,13.72
2017-10-04T08:46:41.978Z,13.81
2017-10-04T08:47:42.588Z,13.81
2017-10-04T08:48:42.587Z,13.78
2017-10-04T08:49:42.584Z,13.78
2017-10-04T08:50:42.280Z,13.77
2017-10-04T08:51:42.584Z,13.81
2017-10-04T08:52:42.277Z,13.72
2017-10-04T08:53:42.586Z,13.78
2017-10-04T08:54:43.479Z,13.83
2017-10-04T08:55:42.583Z,13.77
2017-10-04T08:56:42.581Z,13.75
2017-10-04T08:57:41.965Z,13.62
2017-10-04T08:58:42.584Z,13.56
2017-10-04T08:59:42.586Z,13.57
2017-10-04T09:00:42.268Z,13.5
2017-10-04T09:01:42.279Z,13.6
2017-10-04T09:02:42.578Z,13.56
2017-10-04T09:03:42.578Z,13.7
2017-10-04T09:04:42.270Z,13.71
2017-10-04T10:21:52.077Z,16.71
2017-10-04T10:22:51.772Z,16.87
2017-10-04T10:23:51.773Z,16.81
2017-10-04T10:24:52.122Z,17.01
2017-10-04T10:25:52.117Z,17.04
2017-10-04T10:26:52.070Z,17.02
2017-10-04T10:27:51.772Z,16.96
2017-10-04T10:28:51.773Z,16.81
2017-10-04T10:29:51.779Z,16.84
2017-10-04T10:30:51.455Z,16.71
2017-10-04T10:31:51.463Z,16.71
2017-10-04T10:32:52.080Z,16.74
2017-10-04T10:33:52.082Z,16.81
2017-10-04T10:34:51.785Z,16.89
2017-10-04T10:35:51.789Z,17.01
2017-10-04T10:36:54.786Z,17.09
2017-10-04T10:37:51.784Z,17.15
2017-10-04T10:38:52.107Z,17.19
2017-10-04T10:39:51.781Z,17.36
2017-10-04T10:40:52.093Z,17.42
2017-10-04T10:41:52.127Z,17.57
2017-10-04T10:42:51.798Z,17.54
2017-10-04T10:43:52.102Z,17.67
2017-10-04T10:44:52.102Z,17.63
2017-10-04T10:45:52.124Z,17.76
2017-10-04T10:46:52.128Z,17.85
2017-10-04T10:47:51.799Z,17.95
2017-10-04T10:48:51.796Z,17.92
2017-10-04T10:49:52.128Z,18.04
2017-10-04T10:50:52.108Z,18.13
2017-10-04T10:51:51.805Z,18.25
2017-10-04T10:52:51.804Z,18.33
2017-10-04T10:53:52.137Z,18.31
2017-10-04T10:54:51.806Z,18.49
2017-10-04T10:55:51.500Z,18.44
2017-10-04T10:56:52.131Z,18.35
2017-10-04T10:57:51.507Z,18.43
2017-10-04T10:58:52.154Z,18.5
2017-10-04T10:59:51.837Z,18.38
2017-10-04T11:00:52.153Z,18.43
2017-10-04T11:01:51.840Z,18.29
2017-10-04T11:02:52.179Z,18.35
2017-10-04T11:03:51.838Z,18.33
2017-10-04T11:04:52.148Z,18.43
2017-10-04T11:05:52.158Z,18.43
2017-10-04T11:06:51.856Z,18.43
2017-10-04T11:07:52.168Z,18.41
2017-10-04T11:08:51.841Z,18.31
2017-10-04T11:09:52.159Z,18.25
2017-10-04T11:10:51.871Z,18.31
2017-10-04T11:11:52.186Z,18.44
2017-10-04T11:12:51.859Z,18.43
2017-10-04T11:13:51.847Z,18.4
2017-10-04T11:14:52.198Z,18.33
2017-10-04T11:15:52.172Z,18.4
2017-10-04T11:16:51.870Z,18.29
2017-10-04T11:17:52.201Z,18.25
2017-10-04T11:18:52.184Z,18.2
2017-10-04T11:19:51.557Z,18.04
2017-10-04T11:20:52.210Z,18.07
2017-10-04T11:21:51.875Z,18.05
2017-10-04T11:22:51.878Z,18.04
2017-10-04T11:23:52.202Z,18.1
2017-10-04T11:24:51.884Z,18.05
2017-10-04T11:25:51.886Z,18.23
2017-10-04T11:26:52.209Z,18.31
2017-10-04T11:27:52.232Z,18.33
2017-10-04T11:28:52.210Z,18.22
2017-10-04T11:29:52.233Z,18.23
2017-10-04T11:30:52.209Z,18.15
2017-10-04T11:31:52.220Z,18.28
2017-10-04T11:32:52.230Z,18.25
2017-10-04T11:33:52.215Z,18.34
2017-10-04T11:34:51.898Z,18.23
2017-10-04T11:35:51.915Z,18.33
2017-10-04T11:36:52.158Z,18.26
2017-10-04T11:37:51.600Z,18.43
2017-10-04T11:38:52.219Z,18.44
2017-10-04T11:39:51.911Z,18.37
2017-10-04T11:40:51.915Z,18.34
2017-10-04T11:41:51.938Z,18.1
2017-10-04T11:42:52.255Z,18.16
2017-10-04T11:43:51.621Z,18.23
2017-10-04T11:44:51.920Z,18.2
2017-10-04T11:45:52.266Z,18.2
2017-10-04T11:46:52.238Z,18.18
2017-10-04T11:47:51.924Z,18.18
2017-10-04T11:48:52.263Z,18.23
2017-10-04T11:49:51.933Z,18.28
2017-10-04T11:50:52.257Z,18.29
2017-10-04T11:51:52.266Z,18.38
2017-10-04T11:52:51.938Z,18.44
2017-10-04T11:53:51.937Z,18.41
2017-10-04T11:54:52.279Z,18.56
2017-10-04T11:55:51.981Z,18.5
2017-10-04T11:56:52.262Z,18.56
2017-10-04T11:57:51.963Z,18.56
2017-10-04T11:58:51.973Z,18.38
2017-10-04T11:59:52.285Z,18.38
2017-10-04T12:00:52.014Z,18.33
2017-10-04T12:01:51.955Z,18.23
2017-10-04T12:02:52.288Z,18.15
2017-10-04T12:03:51.982Z,18.11
2017-10-04T12:04:51.658Z,18.03
2017-10-04T12:05:51.967Z,18
2017-10-04T12:06:52.358Z,18.08
2017-10-04T12:07:52.291Z,17.9
2017-10-04T12:08:52.296Z,17.85
2017-10-04T12:09:52.291Z,17.94
2017-10-04T12:10:52.306Z,17.95
2017-10-04T12:11:52.295Z,18.05
2017-10-04T12:12:52.321Z,18.18
2017-10-04T12:13:51.991Z,18.01
2017-10-04T12:14:52.001Z,17.97
2017-10-04T12:15:52.306Z,17.92
2017-10-04T12:16:52.316Z,17.98
2017-10-04T12:17:51.997Z,18.03
2017-10-04T12:18:52.315Z,18.07
2017-10-04T12:19:52.013Z,18.1
2017-10-04T12:20:52.330Z,18.13
2017-10-04T12:21:51.718Z,18.16
2017-10-04T12:22:52.331Z,18.13
2017-10-04T12:23:52.325Z,18
2017-10-04T12:24:52.332Z,18.07
2017-10-04T12:25:52.021Z,18.13
2017-10-04T12:26:52.010Z,18.11
2017-10-04T12:27:52.337Z,18.04
2017-10-04T12:28:52.346Z,18.05
2017-10-04T12:29:52.027Z,18.15
2017-10-04T12:30:52.042Z,18.15
2017-10-04T12:31:52.021Z,18.2
2017-10-04T12:32:51.711Z,18.28
2017-10-04T12:33:52.042Z,18.26
2017-10-04T12:34:52.356Z,18.2
2017-10-04T12:35:52.400Z,18.11
2017-10-04T12:36:55.244Z,18.07
2017-10-04T12:37:51.721Z,18.16
2017-10-04T12:38:52.370Z,18.16
2017-10-04T12:39:52.036Z,18.16
2017-10-04T12:40:52.045Z,18.18
2017-10-04T12:41:52.046Z,18.26
2017-10-04T12:42:52.046Z,18.31
2017-10-04T12:43:51.730Z,18.34
2017-10-04T12:44:52.054Z,18.35
2017-10-04T12:45:51.736Z,18.29
2017-10-04T12:46:52.377Z,18.31
2017-10-04T12:47:52.061Z,18.31
2017-10-04T12:48:52.386Z,18.33
2017-10-04T12:49:52.390Z,18.31
2017-10-04T12:50:51.754Z,18.34
2017-10-04T12:51:52.093Z,18.38
2017-10-04T12:52:51.770Z,18.44
2017-10-04T12:53:52.109Z,18.38
2017-10-04T12:54:52.084Z,18.29
2017-10-04T12:55:52.390Z,18.29
2017-10-04T12:56:52.083Z,18.2
2017-10-04T12:57:52.387Z,18.18
2017-10-04T12:58:52.101Z,18.11
2017-10-04T12:59:52.083Z,18.18
2017-10-04T13:00:52.109Z,18.19
2017-10-04T13:01:52.114Z,18.1
2017-10-04T13:02:52.107Z,18.13
2017-10-04T13:03:52.101Z,18.19
2017-10-04T13:04:52.105Z,18.18
2017-10-04T13:05:51.780Z,18.19
2017-10-04T13:06:52.419Z,18.22
2017-10-04T13:07:52.423Z,18.18
2017-10-04T13:08:52.418Z,18.13
2017-10-04T13:09:52.116Z,18.22
2017-10-04T13:10:52.121Z,18.26
2017-10-04T13:11:52.114Z,18.1
2017-10-04T13:12:52.414Z,18.13
2017-10-04T13:13:52.425Z,18.13
2017-10-04T13:14:52.098Z,18.08
2017-10-04T13:15:52.114Z,18.08
2017-10-04T13:16:52.118Z,18.04
2017-10-04T13:17:52.429Z,18.15
2017-10-04T13:18:52.429Z,18.16
2017-10-04T13:19:52.118Z,18.13
2017-10-04T13:20:52.117Z,18.1
2017-10-04T13:21:52.442Z,18.13
2017-10-04T13:22:52.443Z,18.08
2017-10-04T13:23:52.436Z,18.08
2017-10-04T13:24:52.436Z,18.1
2017-10-04T13:25:52.434Z,17.98
2017-10-04T13:26:52.445Z,18.04
2017-10-04T13:27:52.131Z,18.08
2017-10-04T13:28:52.467Z,18
2017-10-04T13:29:51.814Z,17.98
2017-10-04T13:30:52.145Z,18.01
2017-10-04T13:31:52.158Z,18.05
2017-10-04T13:32:52.453Z,18.04
2017-10-04T13:33:52.141Z,18.03
2017-10-04T13:34:52.166Z,18.1
2017-10-04T13:35:52.161Z,18.22
2017-10-04T13:36:52.161Z,18.1
2017-10-04T13:37:51.850Z,18.13
2017-10-04T13:38:52.172Z,18.05
2017-10-04T13:39:52.460Z,18.07
2017-10-04T13:40:52.164Z,18.03
2017-10-04T13:41:52.163Z,18.05
2017-10-04T13:42:52.167Z,18.04
2017-10-04T13:43:52.166Z,18.03
2017-10-04T13:44:52.475Z,18.22
2017-10-04T13:45:52.178Z,18.11
2017-10-04T13:46:52.173Z,18.16
2017-10-04T13:47:52.485Z,18.2
2017-10-04T13:48:52.168Z,18.15
2017-10-04T13:49:52.482Z,18.2
2017-10-04T13:50:52.480Z,18.31
2017-10-04T13:51:52.471Z,18.33
2017-10-04T13:52:52.168Z,18.35
2017-10-04T13:53:52.194Z,18.34
2017-10-04T13:54:52.174Z,18.31
2017-10-04T13:55:51.871Z,18.29
2017-10-04T13:56:52.482Z,18.26
2017-10-04T13:57:52.481Z,18.2
2017-10-04T13:58:52.177Z,18.22
2017-10-04T13:59:52.518Z,18.2
2017-10-04T14:00:52.184Z,18.23
2017-10-04T14:01:51.898Z,18.26
2017-10-04T14:02:52.218Z,18.2
2017-10-04T14:03:52.198Z,18.15
2017-10-04T14:04:52.201Z,18.15
2017-10-04T14:05:52.500Z,18.11
2017-10-04T14:06:52.502Z,18.08
2017-10-04T14:07:52.512Z,18.15
2017-10-04T14:08:52.201Z,18.1
2017-10-04T14:09:52.205Z,18.11
2017-10-04T14:10:52.205Z,18.18
2017-10-04T14:11:52.208Z,18.19
2017-10-04T14:12:52.510Z,18.13
2017-10-04T14:13:52.204Z,18.13
2017-10-04T14:14:52.217Z,18.2
2017-10-04T14:15:52.214Z,18.23
2017-10-04T14:16:52.513Z,18.2
2017-10-04T14:17:52.201Z,18.2
2017-10-04T14:18:52.522Z,18.34